createdAt,value
2022-07-29T00:01:43.680Z,97413.19
2022-07-29T00:04:11.508Z,97410.69
2022-07-29T00:06:39.274Z,97406.78
2022-07-29T00:09:07.041Z,97401.63
2022-07-29T00:11:34.800Z,97398.94
2022-07-29T00:14:02.458Z,97403.28
2022-07-29T00:16:30.372Z,97388.81
2022-07-29T00:19:02.319Z,97396.25
2022-07-29T00:21:30.357Z,97396.25
2022-07-29T00:23:57.961Z,97397.50
2022-07-29T00:26:26.204Z,97400.81
2022-07-29T00:29:06.357Z,97396.69
2022-07-29T00:31:41.550Z,97398.53
2022-07-29T00:34:30.572Z,97402.88
2022-07-29T00:36:57.297Z,97404.09
2022-07-29T00:39:24.964Z,97396.06
2022-07-29T00:41:55.309Z,97395.44
2022-07-29T00:44:22.945Z,97382.25
2022-07-29T00:46:50.831Z,97384.31
2022-07-29T00:49:19.994Z,97387.63
2022-07-29T00:51:47.777Z,97385.31
2022-07-29T00:54:15.781Z,97389.03
2022-07-29T00:56:43.723Z,97393.38
2022-07-29T00:59:11.389Z,97391.94
2022-07-29T01:01:39.116Z,97389.66
2022-07-29T01:04:07.835Z,97382.63
2022-07-29T01:06:37.018Z,97385.97
2022-07-29T01:09:04.695Z,97381.59
2022-07-29T01:11:32.448Z,97376.88
2022-07-29T01:14:00.267Z,97373.56
2022-07-29T01:16:33.229Z,97374.97
2022-07-29T01:19:09.672Z,97371.88
2022-07-29T01:21:52.864Z,97368.19
2022-07-29T01:24:48.531Z,97370.03
2022-07-29T01:27:30.429Z,97362.34
2022-07-29T01:30:00.789Z,97356.97
2022-07-29T01:32:30.540Z,97359.88
2022-07-29T01:35:01.111Z,97356.97
2022-07-29T01:37:31.857Z,97359.69
2022-07-29T01:40:01.151Z,97348.53
2022-07-29T01:42:32.832Z,97338.66
2022-07-29T01:45:05.285Z,97340.88
2022-07-29T01:47:37.239Z,97341.72
2022-07-29T01:50:09.450Z,97345.03
2022-07-29T01:52:41.440Z,97331.44
2022-07-29T01:55:13.361Z,97327.91
2022-07-29T01:57:42.781Z,97320.69
2022-07-29T02:00:13.669Z,97326.06
2022-07-29T02:02:43.089Z,97318.22
2022-07-29T02:05:13.637Z,97321.72
2022-07-29T02:07:42.718Z,97323.38
2022-07-29T02:10:11.813Z,97321.31
2022-07-29T02:12:40.188Z,97319.88
2022-07-29T02:15:08.993Z,97321.91
2022-07-29T02:17:43.948Z,97323.16
2022-07-29T02:20:12.167Z,97321.31
2022-07-29T02:22:41.575Z,97316.97
2022-07-29T02:25:14.067Z,97317.81
2022-07-29T02:27:42.568Z,97322.75
2022-07-29T02:30:12.475Z,97325.44
2022-07-29T02:32:42.422Z,97324.78
2022-07-29T02:35:11.180Z,97331.16
2022-07-29T02:37:39.748Z,97337.56
2022-07-29T02:40:11.025Z,97333.19
2022-07-29T02:42:39.924Z,97334.41
2022-07-29T02:45:09.268Z,97335.06
2022-07-29T02:47:41.301Z,97328.00
2022-07-29T02:50:14.543Z,97333.84
2022-07-29T02:52:44.854Z,97326.63
2022-07-29T02:55:17.235Z,97330.53
2022-07-29T02:57:55.172Z,97326.22
2022-07-29T03:00:24.069Z,97337.97
2022-07-29T03:02:55.094Z,97339.38
2022-07-29T03:05:24.663Z,97332.41
2022-07-29T03:07:57.351Z,97321.50
2022-07-29T03:10:25.679Z,97328.88
2022-07-29T03:12:54.084Z,97326.38
2022-07-29T03:15:22.713Z,97334.66
2022-07-29T03:17:53.291Z,97326.78
2022-07-29T03:20:21.193Z,97327.03
2022-07-29T03:22:50.371Z,97331.44
2022-07-29T03:25:19.261Z,97326.50
2022-07-29T03:27:47.662Z,97335.16
2022-07-29T03:30:21.564Z,97332.66
2022-07-29T03:32:52.016Z,97330.66
2022-07-29T03:35:20.281Z,97325.06
2022-07-29T03:37:48.531Z,97325.75
2022-07-29T03:40:21.998Z,97324.50
2022-07-29T03:42:51.438Z,97331.28
2022-07-29T03:45:20.886Z,97329.22
2022-07-29T03:47:54.705Z,97328.00
2022-07-29T03:50:24.858Z,97334.75
2022-07-29T03:52:52.601Z,97344.38
2022-07-29T03:55:22.267Z,97341.56
2022-07-29T03:57:50.825Z,97347.47
2022-07-29T04:00:18.769Z,97341.88
2022-07-29T04:02:49.443Z,97351.41
2022-07-29T04:05:18.138Z,97346.03
2022-07-29T04:07:46.682Z,97354.28
2022-07-29T04:10:14.556Z,97364.38
2022-07-29T04:12:43.740Z,97371.44
2022-07-29T04:15:12.813Z,97368.41
2022-07-29T04:17:40.470Z,97363.13
2022-07-29T04:20:09.040Z,97364.97
2022-07-29T04:22:36.686Z,97376.34
2022-07-29T04:25:04.718Z,97374.00
2022-07-29T04:27:32.481Z,97377.19
2022-07-29T04:30:01.477Z,97380.59
2022-07-29T04:32:29.181Z,97379.91
2022-07-29T04:34:56.820Z,97372.91
2022-07-29T04:37:24.647Z,97377.94
2022-07-29T04:39:52.359Z,97370.50
2022-07-29T04:42:27.592Z,97379.41
2022-07-29T04:44:55.581Z,97387.59
2022-07-29T04:47:25.084Z,97390.53
2022-07-29T04:49:52.724Z,97382.91
2022-07-29T04:52:20.353Z,97381.00
2022-07-29T04:54:48.033Z,97386.66
2022-07-29T04:57:15.673Z,97381.22
2022-07-29T04:59:43.400Z,97382.25
2022-07-29T05:02:11.126Z,97377.34
2022-07-29T05:04:40.180Z,97392.28
2022-07-29T05:07:07.856Z,97388.72
2022-07-29T05:09:35.487Z,97388.88
2022-07-29T05:12:03.258Z,97396.88
2022-07-29T05:14:31.089Z,97395.91
2022-07-29T05:16:58.724Z,97391.44
2022-07-29T05:19:26.373Z,97392.28
2022-07-29T05:21:55.391Z,97392.06
2022-07-29T05:24:23.043Z,97391.78
2022-07-29T05:26:50.692Z,97391.34
2022-07-29T05:29:44.344Z,97397.16
2022-07-29T05:32:06.622Z,97395.09
2022-07-29T05:34:34.534Z,97398.91
2022-07-29T05:37:03.598Z,97401.13
2022-07-29T05:39:47.019Z,97399.69
2022-07-29T05:42:16.865Z,97394.72
2022-07-29T05:44:44.591Z,97407.38
2022-07-29T05:47:12.551Z,97402.41
2022-07-29T05:49:40.257Z,97401.91
2022-07-29T05:52:09.895Z,97399.63
2022-07-29T05:54:37.698Z,97412.00
2022-07-29T05:57:06.361Z,97407.53
2022-07-29T05:59:37.620Z,97400.59
2022-07-29T06:02:06.411Z,97400.53
2022-07-29T06:04:34.564Z,97406.28
2022-07-29T06:07:02.754Z,97396.53
2022-07-29T06:09:31.912Z,97402.16
2022-07-29T06:11:59.789Z,97399.81
2022-07-29T06:14:29.708Z,97404.16
2022-07-29T06:16:57.622Z,97406.25
2022-07-29T06:19:25.393Z,97399.44
2022-07-29T06:21:53.238Z,97409.81
2022-07-29T06:24:21.278Z,97399.53
2022-07-29T06:26:50.402Z,97403.84
2022-07-29T06:29:18.080Z,97405.50
2022-07-29T06:31:45.811Z,97407.75
2022-07-29T06:34:13.809Z,97409.47
2022-07-29T06:36:41.899Z,97403.72
2022-07-29T06:39:11.615Z,97406.38
2022-07-29T06:41:39.918Z,97411.94
2022-07-29T06:44:08.900Z,97412.16
2022-07-29T06:46:37.520Z,97413.78
2022-07-29T06:49:05.828Z,97421.00
2022-07-29T06:51:33.731Z,97426.94
2022-07-29T06:54:02.607Z,97434.97
2022-07-29T06:56:32.325Z,97434.13
2022-07-29T06:59:06.447Z,97440.84
2022-07-29T07:01:35.546Z,97434.47
2022-07-29T07:04:03.919Z,97432.19
2022-07-29T07:06:31.565Z,97436.91
2022-07-29T07:08:59.424Z,97447.25
2022-07-29T07:11:27.150Z,97439.84
2022-07-29T07:13:57.075Z,97432.50
2022-07-29T07:16:28.656Z,97437.34
2022-07-29T07:18:57.696Z,97438.09
2022-07-29T07:21:25.473Z,97438.34
2022-07-29T07:23:53.104Z,97438.75
2022-07-29T07:26:20.907Z,97445.03
2022-07-29T07:28:48.634Z,97442.69
2022-07-29T07:31:16.321Z,97441.97
2022-07-29T07:33:44.064Z,97446.31
2022-07-29T07:36:13.102Z,97438.50
2022-07-29T07:38:40.849Z,97436.00
2022-07-29T07:41:08.559Z,97421.91
2022-07-29T07:43:36.186Z,97428.72
2022-07-29T07:46:03.899Z,97420.88
2022-07-29T07:48:31.656Z,97427.34
2022-07-29T07:50:59.307Z,97419.31
2022-07-29T07:53:30.977Z,97421.22
2022-07-29T07:56:15.482Z,97417.53
2022-07-29T07:58:43.401Z,97421.25
2022-07-29T08:01:11.455Z,97420.28
2022-07-29T08:03:39.839Z,97420.63
2022-07-29T08:06:07.850Z,97418.88
2022-07-29T08:08:36.861Z,97420.44
2022-07-29T08:11:08.992Z,97417.13
2022-07-29T08:13:38.654Z,97427.50
2022-07-29T08:16:13.487Z,97422.47
2022-07-29T08:18:42.586Z,97434.00
2022-07-29T08:21:10.259Z,97428.00
2022-07-29T08:23:48.258Z,97428.66
2022-07-29T08:26:18.384Z,97434.19
2022-07-29T08:28:47.248Z,97430.22
2022-07-29T08:31:15.387Z,97427.28
2022-07-29T08:33:43.367Z,97423.31
2022-07-29T08:36:11.129Z,97419.81
2022-07-29T08:38:40.145Z,97423.94
2022-07-29T08:41:07.823Z,97423.88
2022-07-29T08:43:38.334Z,97425.06
2022-07-29T08:46:06.173Z,97423.84
2022-07-29T08:48:34.577Z,97426.91
2022-07-29T08:51:02.507Z,97428.88
2022-07-29T08:53:32.151Z,97420.44
2022-07-29T08:56:01.992Z,97420.06
2022-07-29T08:58:36.558Z,97432.00
2022-07-29T09:01:06.810Z,97428.22
2022-07-29T09:03:38.199Z,97415.69
2022-07-29T09:06:06.429Z,97411.31
2022-07-29T09:08:34.972Z,97417.88
2022-07-29T09:11:05.426Z,97418.81
2022-07-29T09:13:33.495Z,97424.50
2022-07-29T09:16:04.446Z,97425.13
2022-07-29T09:18:39.970Z,97418.03
2022-07-29T09:21:26.647Z,97418.50
2022-07-29T09:24:08.685Z,97420.00
2022-07-29T09:26:38.987Z,97414.19
2022-07-29T09:29:14.182Z,97421.28
2022-07-29T09:31:43.707Z,97420.34
2022-07-29T09:34:12.243Z,97413.94
2022-07-29T09:36:44.002Z,97410.16
2022-07-29T09:39:11.883Z,97409.00
2022-07-29T09:41:53.830Z,97399.53
2022-07-29T09:44:22.021Z,97406.63
2022-07-29T09:46:57.957Z,97404.53
2022-07-29T09:49:26.542Z,97406.47
2022-07-29T09:52:06.986Z,97401.72
2022-07-29T09:54:37.728Z,97405.34
2022-07-29T09:57:07.969Z,97402.91
2022-07-29T09:59:35.625Z,97404.72
2022-07-29T10:02:03.622Z,97403.78
2022-07-29T10:04:41.680Z,97399.84
2022-07-29T10:07:09.890Z,97389.84
2022-07-29T10:09:37.776Z,97383.22
2022-07-29T10:12:11.948Z,97390.78
2022-07-29T10:14:40.501Z,97379.94
2022-07-29T10:17:09.272Z,97379.25
2022-07-29T10:19:38.651Z,97375.66
2022-07-29T10:22:08.435Z,97367.41
2022-07-29T10:24:36.555Z,97365.91
2022-07-29T10:27:06.088Z,97368.44
2022-07-29T10:29:35.456Z,97369.22
2022-07-29T10:32:13.124Z,97366.59
2022-07-29T10:34:55.424Z,97368.88
2022-07-29T10:37:29.713Z,97363.19
2022-07-29T10:40:24.442Z,97357.09
2022-07-29T10:42:54.712Z,97355.69
2022-07-29T10:45:24.892Z,97366.25
2022-07-29T10:48:05.624Z,97369.03
2022-07-29T10:50:59.862Z,97353.03
2022-07-29T10:53:50.956Z,97354.38
2022-07-29T10:56:26.943Z,97341.63
2022-07-29T10:59:26.987Z,97356.47
2022-07-29T11:02:27.894Z,97346.22
2022-07-29T11:05:02.162Z,97341.97
2022-07-29T11:07:45.701Z,97334.38
2022-07-29T11:10:27.058Z,97339.59
2022-07-29T11:12:59.293Z,97329.19
2022-07-29T11:15:28.448Z,97320.53
2022-07-29T11:18:08.223Z,97324.75
2022-07-29T11:20:45.728Z,97316.84
2022-07-29T11:23:25.984Z,97316.34
2022-07-29T11:26:25.835Z,97311.56
2022-07-29T11:29:01.663Z,97306.34
2022-07-29T11:31:37.402Z,97311.25
2022-07-29T11:34:28.097Z,97304.69
2022-07-29T11:40:20.007Z,97298.44
2022-07-29T11:42:48.637Z,97308.69
2022-07-29T11:45:41.520Z,97317.66
2022-07-29T11:48:31.376Z,97313.91
2022-07-29T11:51:02.901Z,97312.16
2022-07-29T11:53:32.936Z,97313.22
2022-07-29T11:56:02.629Z,97312.72
2022-07-29T11:58:30.746Z,97310.41
2022-07-29T12:01:04.645Z,97309.72
2022-07-29T12:03:35.962Z,97307.56
2022-07-29T12:06:07.573Z,97305.81
2022-07-29T12:08:42.362Z,97307.56
2022-07-29T12:11:21.467Z,97312.22
2022-07-29T12:13:50.449Z,97305.34
2022-07-29T12:16:25.755Z,97309.91
2022-07-29T12:18:58.480Z,97312.38
2022-07-29T12:21:28.923Z,97305.34
2022-07-29T12:24:00.630Z,97305.84
2022-07-29T12:26:32.766Z,97298.78
2022-07-29T12:29:02.501Z,97296.00
2022-07-29T12:31:43.707Z,97308.09
2022-07-29T12:34:13.213Z,97313.00
2022-07-29T12:36:42.779Z,97311.94
2022-07-29T12:39:11.096Z,97306.13
2022-07-29T12:41:39.601Z,97296.53
2022-07-29T12:44:07.269Z,97297.19
2022-07-29T12:46:35.000Z,97286.31
2022-07-29T12:49:04.056Z,97283.94
2022-07-29T12:51:33.227Z,97285.03
2022-07-29T12:54:07.099Z,97275.41
2022-07-29T12:56:44.023Z,97275.00
2022-07-29T12:59:19.304Z,97277.88
2022-07-29T13:01:50.073Z,97272.13
2022-07-29T13:04:27.493Z,97282.78
2022-07-29T13:07:01.213Z,97279.78
2022-07-29T13:09:39.161Z,97269.78
2022-07-29T13:12:09.226Z,97270.59
2022-07-29T13:14:38.088Z,97260.41
2022-07-29T13:17:08.451Z,97254.78
2022-07-29T13:19:38.628Z,97256.09
2022-07-29T13:22:06.475Z,97258.72
2022-07-29T13:24:35.641Z,97254.66
2022-07-29T13:27:05.823Z,97254.03
2022-07-29T13:29:34.144Z,97254.13
2022-07-29T13:32:01.892Z,97240.06
2022-07-29T13:34:29.545Z,97251.53
2022-07-29T13:36:57.181Z,97247.13
2022-07-29T13:39:24.829Z,97244.28
2022-07-29T13:41:53.930Z,97223.94
2022-07-29T13:44:23.989Z,97232.69
2022-07-29T13:46:51.809Z,97220.97
2022-07-29T13:49:19.502Z,97240.84
2022-07-29T13:51:47.275Z,97239.25
2022-07-29T13:54:14.935Z,97229.91
2022-07-29T13:56:42.648Z,97233.84
2022-07-29T13:59:11.652Z,97237.88
2022-07-29T14:01:42.404Z,97230.84
2022-07-29T14:04:10.490Z,97229.75
2022-07-29T14:06:40.548Z,97216.28
2022-07-29T14:09:09.605Z,97209.50
2022-07-29T14:11:39.336Z,97211.34
2022-07-29T14:14:07.029Z,97207.91
2022-07-29T14:16:39.245Z,97203.16
2022-07-29T14:19:10.263Z,97217.00
2022-07-29T14:21:37.937Z,97216.53
2022-07-29T14:24:16.301Z,97212.25
2022-07-29T14:26:49.462Z,97202.13
2022-07-29T14:29:17.173Z,97202.34
2022-07-29T14:31:46.278Z,97200.19
2022-07-29T14:34:14.141Z,97207.44
2022-07-29T14:36:41.774Z,97199.69
2022-07-29T14:39:09.784Z,97206.81
2022-07-29T14:41:37.452Z,97213.09
2022-07-29T14:44:05.660Z,97211.06
2022-07-29T14:46:33.373Z,97213.31
2022-07-29T14:49:02.548Z,97219.13
2022-07-29T14:51:32.501Z,97233.19
2022-07-29T14:54:00.455Z,97228.88
2022-07-29T14:56:46.284Z,97224.41
2022-07-29T14:59:14.658Z,97218.25
2022-07-29T15:01:42.356Z,97221.09
2022-07-29T15:04:11.443Z,97224.91
2022-07-29T15:06:39.110Z,97223.22
2022-07-29T15:09:06.814Z,97230.25
2022-07-29T15:11:38.328Z,97211.53
2022-07-29T15:14:06.596Z,97216.50
2022-07-29T15:16:34.793Z,97222.25
2022-07-29T15:19:02.892Z,97219.47
2022-07-29T15:21:32.037Z,97214.31
2022-07-29T15:23:59.720Z,97218.06
2022-07-29T15:26:27.570Z,97223.88
2022-07-29T15:28:56.567Z,97215.88
2022-07-29T15:31:24.314Z,97207.94
2022-07-29T15:33:56.963Z,97210.75
2022-07-29T15:36:51.062Z,97202.06
2022-07-29T15:39:14.842Z,97201.59
2022-07-29T15:41:42.502Z,97209.97
2022-07-29T15:44:10.320Z,97213.16
2022-07-29T15:46:55.995Z,97224.59
2022-07-29T15:49:23.919Z,97219.75
2022-07-29T15:51:51.632Z,97223.84
2022-07-29T15:54:20.713Z,97224.03
2022-07-29T15:56:48.396Z,97226.06
2022-07-29T15:59:22.305Z,97229.34
2022-07-29T16:01:50.869Z,97230.75
2022-07-29T16:04:19.209Z,97229.69
2022-07-29T16:06:48.126Z,97240.63
2022-07-29T16:09:16.645Z,97231.59
2022-07-29T16:11:46.347Z,97235.66
2022-07-29T16:14:14.142Z,97238.28
2022-07-29T16:16:41.944Z,97240.78
2022-07-29T16:19:10.509Z,97243.13
2022-07-29T16:21:38.710Z,97244.06
2022-07-29T16:24:07.360Z,97257.06
2022-07-29T16:26:36.636Z,97257.09
2022-07-29T16:29:06.116Z,97256.22
2022-07-29T16:31:33.796Z,97247.31
2022-07-29T16:34:01.814Z,97245.88
2022-07-29T16:36:29.517Z,97247.53
2022-07-29T16:38:57.309Z,97240.75
2022-07-29T16:41:24.983Z,97248.25
2022-07-29T16:43:52.983Z,97249.59
2022-07-29T16:46:22.124Z,97245.78
2022-07-29T16:48:52.052Z,97249.41
2022-07-29T16:51:19.736Z,97248.53
2022-07-29T16:53:49.023Z,97258.38
2022-07-29T16:56:18.326Z,97271.00
2022-07-29T16:58:46.090Z,97268.09
2022-07-29T17:01:13.765Z,97260.81
2022-07-29T17:03:59.911Z,97255.72
2022-07-29T17:06:28.666Z,97268.09
2022-07-29T17:08:57.549Z,97276.28
2022-07-29T17:11:51.603Z,97289.94
2022-07-29T17:14:13.176Z,97273.25
2022-07-29T17:16:40.859Z,97275.13
2022-07-29T17:19:10.120Z,97290.16
2022-07-29T17:21:37.882Z,97286.84
2022-07-29T17:24:17.109Z,97284.28
2022-07-29T17:26:44.987Z,97286.25
2022-07-29T17:29:12.940Z,97284.75
2022-07-29T17:31:40.632Z,97292.44
2022-07-29T17:34:09.301Z,97290.56
2022-07-29T17:36:38.361Z,97292.44
2022-07-29T17:39:08.104Z,97291.66
2022-07-29T17:41:36.010Z,97299.38
2022-07-29T17:44:03.769Z,97309.09
2022-07-29T17:46:31.460Z,97313.34
2022-07-29T17:48:59.205Z,97314.88
2022-07-29T17:51:27.589Z,97326.78
2022-07-29T17:53:58.160Z,97315.59
2022-07-29T17:56:26.168Z,97310.69
2022-07-29T17:58:54.198Z,97317.06
2022-07-29T18:01:21.910Z,97320.25
2022-07-29T18:03:50.074Z,97314.72
2022-07-29T18:06:18.024Z,97323.88
2022-07-29T18:08:47.504Z,97330.34
2022-07-29T18:11:16.568Z,97330.69
2022-07-29T18:13:44.602Z,97334.31
2022-07-29T18:16:12.304Z,97340.16
2022-07-29T18:18:40.025Z,97341.50
2022-07-29T18:21:08.171Z,97339.69
2022-07-29T18:23:35.999Z,97342.22
2022-07-29T18:26:03.876Z,97345.56
2022-07-29T18:28:33.223Z,97348.59
2022-07-29T18:31:01.064Z,97354.25
2022-07-29T18:33:28.836Z,97364.00
2022-07-29T18:36:10.675Z,97376.22
2022-07-29T18:38:39.817Z,97368.25
2022-07-29T18:41:07.592Z,97367.63
2022-07-29T18:43:37.062Z,97375.03
2022-07-29T18:46:05.888Z,97366.78
2022-07-29T18:48:34.082Z,97376.25
2022-07-29T18:51:02.480Z,97386.31
2022-07-29T18:53:37.390Z,97386.19
2022-07-29T18:56:05.678Z,97387.63
2022-07-29T18:58:34.037Z,97391.69
2022-07-29T19:01:03.178Z,97393.19
2022-07-29T19:03:30.998Z,97407.88
2022-07-29T19:05:58.729Z,97397.63
2022-07-29T19:08:26.497Z,97398.09
2022-07-29T19:10:54.399Z,97413.31
2022-07-29T19:13:22.114Z,97418.28
2022-07-29T19:15:49.906Z,97417.78
2022-07-29T19:18:19.313Z,97426.72
2022-07-29T19:20:47.007Z,97434.63
2022-07-29T19:23:14.964Z,97428.94
2022-07-29T19:25:53.511Z,97446.41
2022-07-29T19:28:22.047Z,97454.91
2022-07-29T19:30:49.875Z,97456.16
2022-07-29T19:33:19.222Z,97456.41
2022-07-29T19:35:50.332Z,97463.19
2022-07-29T19:38:19.269Z,97461.41
2022-07-29T19:40:47.758Z,97450.28
2022-07-29T19:43:50.825Z,97454.50
2022-07-29T19:46:03.360Z,97465.00
2022-07-29T19:48:32.857Z,97467.00
2022-07-29T19:51:00.504Z,97469.44
2022-07-29T19:53:28.183Z,97469.06
2022-07-29T19:55:55.848Z,97464.53
2022-07-29T19:58:23.507Z,97454.28
2022-07-29T20:00:54.759Z,97458.19
2022-07-29T20:03:22.724Z,97449.09
2022-07-29T20:05:52.823Z,97450.13
2022-07-29T20:08:20.678Z,97455.09
2022-07-29T20:10:48.372Z,97460.06
2022-07-29T20:13:16.083Z,97455.91
2022-07-29T20:15:43.782Z,97458.41
2022-07-29T20:18:11.444Z,97472.94
2022-07-29T20:20:39.112Z,97474.06
2022-07-29T20:23:08.276Z,97471.91
2022-07-29T20:25:36.711Z,97481.63
2022-07-29T20:28:04.800Z,97485.16
2022-07-29T20:30:32.440Z,97487.44
2022-07-29T20:33:00.664Z,97494.06
2022-07-29T20:35:28.490Z,97497.03
2022-07-29T20:37:56.846Z,97499.50
2022-07-29T20:40:26.960Z,97503.63
2022-07-29T20:42:54.686Z,97508.16
2022-07-29T20:45:22.496Z,97504.88
2022-07-29T20:47:50.723Z,97509.63
2022-07-29T20:50:18.607Z,97501.59
2022-07-29T20:52:46.346Z,97502.78
2022-07-29T20:55:14.016Z,97508.41
2022-07-29T20:57:43.035Z,97508.59
2022-07-29T21:00:11.901Z,97511.66
2022-07-29T21:02:39.632Z,97508.97
2022-07-29T21:05:07.766Z,97507.75
2022-07-29T21:07:35.550Z,97516.00
2022-07-29T21:10:03.212Z,97514.31
2022-07-29T21:12:31.037Z,97511.38
2022-07-29T21:15:00.181Z,97506.63
2022-07-29T21:17:27.836Z,97509.16
2022-07-29T21:19:55.486Z,97506.94
2022-07-29T21:22:23.142Z,97514.56
2022-07-29T21:24:50.787Z,97512.28
2022-07-29T21:27:38.225Z,97518.66
2022-07-29T21:30:09.451Z,97508.78
2022-07-29T21:32:37.311Z,97517.59
2022-07-29T21:35:19.172Z,97522.34
2022-07-29T21:37:53.625Z,97530.84
2022-07-29T21:40:21.760Z,97527.94
2022-07-29T21:42:49.399Z,97532.06
2022-07-29T21:45:18.852Z,97539.06
2022-07-29T21:47:46.481Z,97529.84
2022-07-29T21:50:14.119Z,97531.13
2022-07-29T21:52:41.798Z,97534.81
2022-07-29T21:55:11.445Z,97530.41
2022-07-29T21:57:39.395Z,97539.09
2022-07-29T22:00:10.375Z,97539.31
2022-07-29T22:02:39.356Z,97530.00
2022-07-29T22:05:07.376Z,97527.97
2022-07-29T22:07:55.600Z,97525.25
2022-07-29T22:10:22.796Z,97525.47
2022-07-29T22:12:51.600Z,97527.88
2022-07-29T22:15:19.410Z,97530.22
2022-07-29T22:17:48.402Z,97526.97
2022-07-29T22:20:16.113Z,97523.94
2022-07-29T22:22:43.971Z,97533.41
2022-07-29T22:25:12.162Z,97519.88
2022-07-29T22:27:40.307Z,97522.03
2022-07-29T22:30:09.074Z,97514.91
2022-07-29T22:32:36.928Z,97508.56
2022-07-29T22:35:06.511Z,97508.22
2022-07-29T22:37:34.368Z,97510.28
2022-07-29T22:40:02.185Z,97503.06
2022-07-29T22:42:30.393Z,97506.28
2022-07-29T22:44:58.037Z,97501.13
2022-07-29T22:47:45.855Z,97496.69
2022-07-29T22:50:14.697Z,97495.28
2022-07-29T22:52:42.370Z,97495.31
2022-07-29T22:55:10.313Z,97494.38
2022-07-29T22:57:37.953Z,97484.63
2022-07-29T23:00:07.100Z,97485.94
2022-07-29T23:02:36.231Z,97481.13
2022-07-29T23:05:03.916Z,97488.41
2022-07-29T23:07:32.943Z,97485.53
2022-07-29T23:10:00.583Z,97485.06
2022-07-29T23:12:28.280Z,97490.66
2022-07-29T23:14:55.957Z,97488.38
2022-07-29T23:17:23.773Z,97491.09
2022-07-29T23:19:51.480Z,97481.38
2022-07-29T23:22:19.145Z,97492.94
2022-07-29T23:24:48.132Z,97492.47
2022-07-29T23:27:16.018Z,97485.97
2022-07-29T23:29:43.712Z,97487.38
2022-07-29T23:32:11.474Z,97488.38
2022-07-29T23:34:39.111Z,97479.50
2022-07-29T23:37:07.534Z,97481.91
2022-07-29T23:39:35.187Z,97475.63
2022-07-29T23:42:05.145Z,97474.53
2022-07-29T23:44:32.833Z,97477.94
2022-07-29T23:47:00.994Z,97472.63
2022-07-29T23:49:28.847Z,97470.28
2022-07-29T23:51:56.521Z,97481.44
2022-07-29T23:54:24.148Z,97485.38
2022-07-29T23:56:51.882Z,97475.81
2022-07-29T23:59:20.872Z,97482.91
